• Join FlightAware (Why Join?)
  • Login
  • US Flag 
09:12AM EDT


 

Airport Tracker/Info


-or-


 

Live Flight TrackerFlight Track Log ✈ DAL268 ✈ 15-Aug-2013 ✈ KJFK - LLBG / TLV

Flight Track Log - Related Links

Times and Time Zones

All times are in EDT time to prevent confusion due to time zone crossing. See the DAL268 flight status page for this flight to view local times or setup timezone preferences in your user account.

Time Position Orientation Groundspeed Altitude Reporting Facility
EDT Latitude Longitude Course Direction KTS MPH feet Rate Location/Type
11:51PM 40.6370 -73.7800 264° West  Level FlightAware
12:00AM 40.9272 -73.5061 37° Northeast  Level FlightAware Approximate
12:01AM 41.0412 -73.4088 30° Northeast  Level FlightAware Approximate
12:02AM 41.1642 -73.3191 37° Northeast  Level FlightAware Approximate
12:03AM 41.2823 -73.2175 29° Northeast  Level FlightAware Approximate
12:09AM 40.6340 -73.7840 303° West 115 132  Level FlightAware
12:10AM 40.6500 -73.8200 300° West 175 201 400 600 Climbing FlightAware
12:10AM 40.6520 -73.8270 291° West 177 204 500 960 Climbing FlightAware
12:10AM 40.6520 -73.8330 270° West 177 204 600 1,200 Climbing FlightAware
12:10AM 40.6450 -73.8500 242° Southwest 186 214 1,000 1,260 Climbing FlightAware
12:10AM 40.6390 -73.8560 217° Southwest 191 220 1,200 1,260 Climbing FlightAware
12:11AM 40.6190 -73.8720 211° Southwest 205 236 1,700 1,140 Climbing FlightAware
12:11AM 40.6090 -73.8790 208° Southwest 220 253 1,900 540 Climbing FlightAware
12:11AM 40.6000 -73.8820 194° South 232 267 1,900  Level FlightAware
12:11AM 40.5930 -73.8830 186° South 241 277 1,900 420 Level FlightAware
12:12AM 40.5700 -73.8720 160° South 264 304 2,100 600 Climbing FlightAware
12:12AM 40.5630 -73.8620 133° Southeast 273 314 2,200 900 Climbing FlightAware
12:12AM 40.5560 -73.8440 117° Southeast 283 326 2,400 1,380 Climbing FlightAware
12:12AM 40.5530 -73.8300 106° East 284 327 2,700 2,760 Climbing FlightAware
12:12AM 40.5520 -73.8200 97° East 283 326 3,000 2,040 Climbing FlightAware
12:13AM 40.5680 -73.7720 66° East 295 339 3,900 2,280 Climbing FlightAware
12:13AM 40.5844 -73.7460 50° Northeast 287 330 4,900 2,700 Climbing FlightAware ADS-B
12:13AM 40.5987 -73.7251 48° Northeast 292 336 5,500 2,280 Climbing FlightAware ADS-B
12:14AM 40.6274 -73.6837 48° Northeast 297 342 6,700 2,040 Climbing FlightAware ADS-B
12:14AM 40.6442 -73.6660 39° Northeast 298 343 7,100 1,200 Climbing FlightAware ADS-B
12:14AM 40.6574 -73.6580 25° Northeast 317 365 7,200 2,040 Climbing FlightAware ADS-B
12:15AM 40.6997 -73.6487 North 319 367 8,400 2,340 Climbing FlightAware ADS-B
12:15AM 40.7450 -73.6410 North 317 365 9,600 2,220 Climbing FlightAware
12:16AM 40.7766 -73.6344 North 319 367 10,400 2,280 Climbing FlightAware ADS-B
12:16AM 40.7841 -73.6330 North 322 371 10,600 1,380 Climbing FlightAware ADS-B
12:16AM 40.8271 -73.6180 15° North 343 395 11,200 1,320 Climbing FlightAware ADS-B
12:16AM 40.8375 -73.6113 26° Northeast 348 400 11,400 1,920 Climbing FlightAware ADS-B
12:17AM 40.9026 -73.5558 33° Northeast 358 412 13,000 1,680 Climbing FlightAware ADS-B
12:18AM 40.9539 -73.5165 30° Northeast 381 438 13,700 1,860 Climbing FlightAware ADS-B
12:18AM 41.0029 -73.4738 33° Northeast 387 445 15,100 2,160 Climbing FlightAware ADS-B
12:19AM 41.0446 -73.4349 35° Northeast 400 460 15,900 1,560 Climbing FlightAware ADS-B
12:19AM 41.0793 -73.3970 39° Northeast 413 475 16,500 2,100 Climbing FlightAware ADS-B
12:20AM 41.1229 -73.3372 46° Northeast 409 471 17,900 1,980 Climbing FlightAware ADS-B
12:20AM 41.1620 -73.2730 51° Northeast 425 489 18,700 1,740 Climbing FlightAware
12:21AM 41.2040 -73.1980 53° Northeast 428 493 19,900 1,920 Climbing FlightAware
12:21AM 41.2480 -73.1200 53° Northeast 434 499 21,000 1,620 Climbing FlightAware
12:22AM 41.2860 -73.0500 54° Northeast 443 510 21,800 1,500 Climbing FlightAware
12:22AM 41.3290 -72.9730 53° Northeast 450 518 22,700 1,380 Climbing FlightAware
12:23AM 41.3770 -72.8910 52° Northeast 458 527 23,500 1,200 Climbing FlightAware
12:24AM 41.4220 -72.8090 54° Northeast 466 536 24,200 840 Climbing FlightAware
12:24AM 41.4770 -72.7230 49° Northeast 484 557 24,600 660 Climbing FlightAware
12:25AM 41.5190 -72.6590 49° Northeast 497 572 25,000 480 Climbing FlightAware
12:25AM 41.5740 -72.5700 50° Northeast 504 580 25,200 120 Climbing FlightAware
12:26AM 41.6200 -72.4970 50° Northeast 504 580 25,200 1,200 Level FlightAware
12:27AM 41.6740 -72.4070 51° Northeast 536 617 26,900 1,620 Climbing FlightAware
12:28AM 41.7850 -72.2270 50° Northeast 543 625 27,800 1,020 Climbing FlightAware
12:28AM 41.8460 -72.1270 51° Northeast 549 632 28,400 960 Climbing FlightAware
12:29AM 41.9000 -72.0400 50° Northeast 554 638 29,000 1,320 Climbing FlightAware
12:30AM 41.9750 -71.9150 51° Northeast 548 631 30,200 1,500 Climbing FlightAware
12:30AM 42.0260 -71.8340 50° Northeast 546 628 30,900 1,020 Climbing FlightAware
12:31AM 42.0880 -71.7300 51° Northeast 551 634 31,400 900 Climbing FlightAware
12:31AM 42.1420 -71.6400 51° Northeast 551 634 32,000 1,080 Climbing FlightAware
12:32AM 42.2010 -71.5410 51° Northeast 551 634 32,700 1,080 Climbing FlightAware
12:32AM 42.2550 -71.4500 51° Northeast 549 632 33,300 900 Climbing FlightAware
12:33AM 42.3150 -71.3510 51° Northeast 548 631 33,800 600 Climbing FlightAware
12:34AM 42.3660 -71.2660 51° Northeast 550 633 34,000 180 Climbing FlightAware
12:34AM 42.4200 -71.1750 51° Northeast 548 631 34,000  Level FlightAware
12:35AM 42.4770 -71.0780 51° Northeast 548 631 34,000  Level FlightAware
12:35AM 42.5380 -70.9730 52° Northeast 548 631 34,000  Level FlightAware
12:36AM 42.5890 -70.8870 51° Northeast 549 632 34,000  Level FlightAware
12:37AM 42.6450 -70.7900 52° Northeast 550 633 34,000  Level FlightAware
12:37AM 42.6950 -70.7040 52° Northeast 550 633 34,000  Level FlightAware
12:38AM 42.7550 -70.6030 51° Northeast 551 634 34,000  Level FlightAware
12:38AM 42.8090 -70.5100 52° Northeast 551 634 34,000  Level FlightAware
12:39AM 42.8630 -70.4150 52° Northeast 553 636 34,000  Level FlightAware
12:40AM 42.9230 -70.3100 52° Northeast 554 638 34,000  Level FlightAware
12:40AM 42.9800 -70.2110 52° Northeast 554 638 34,000  Level FlightAware
12:41AM 43.0300 -70.1230 52° Northeast 555 639 34,000  Level FlightAware
12:41AM 43.1010 -70.0010 51° Northeast 556 640 34,000  Level FlightAware
12:42AM 43.1560 -69.9040 52° Northeast 557 641 34,000  Level FlightAware
12:43AM 43.2160 -69.7980 52° Northeast 557 641 34,000  Level FlightAware
12:44AM 43.3000 -69.6490 52° Northeast 558 642 34,000  Level FlightAware
12:44AM 43.3480 -69.5630 52° Northeast 558 642 34,000  Level FlightAware
12:45AM 43.3970 -69.4770 52° Northeast 558 642 34,000  Level FlightAware
12:45AM 43.4780 -69.3300 53° Northeast 557 641 34,000  Level FlightAware
12:46AM 43.5270 -69.2440 52° Northeast 557 641 34,000  Level FlightAware
12:47AM 43.5750 -69.1580 52° Northeast 557 641 34,000  Level FlightAware
12:47AM 43.6400 -69.0380 53° Northeast 557 641 34,000  Level FlightAware
12:48AM 43.6900 -68.9490 52° Northeast 557 641 34,000  Level FlightAware
12:48AM 43.7380 -68.8630 52° Northeast 557 641 34,000  Level FlightAware
12:49AM 43.7870 -68.7770 52° Northeast 557 641 34,000  Level FlightAware
12:50AM 43.8350 -68.6910 52° Northeast 557 641 34,000  Level FlightAware
12:50AM 43.8840 -68.6050 52° Northeast 557 641 34,000  Level FlightAware
12:51AM 43.9320 -68.5190 52° Northeast 557 641 34,000  Level FlightAware
12:51AM 44.0380 -68.3050 55° Northeast 555 639 34,000  Level FlightAware
12:52AM 44.1000 -68.1870 54° Northeast 550 633 34,000  Level FlightAware
12:53AM 44.1530 -68.0900 53° Northeast 552 635 34,000  Level FlightAware
12:53AM 44.1990 -68.0030 54° Northeast 552 635 34,000  Level FlightAware
12:54AM 44.2610 -67.8850 54° Northeast 553 636 34,000  Level FlightAware
12:54AM 44.3070 -67.7980 54° Northeast 553 636 34,000  Level FlightAware
12:55AM 44.3680 -67.6820 54° Northeast 554 638 34,000  Level FlightAware
12:56AM 44.4210 -67.5830 53° Northeast 555 639 34,000  Level FlightAware
12:56AM 44.4820 -67.4660 54° Northeast 556 640 34,000  Level FlightAware
12:57AM 44.5440 -67.3450 54° Northeast 558 642 34,000  Level FlightAware
12:58AM 44.5980 -67.2410 54° Northeast 560 644 34,000  Level FlightAware
12:58AM 44.6520 -67.1370 54° Northeast 561 646 34,000  Level FlightAware
12:59AM 44.7130 -67.0180 54° Northeast 562 647 34,000  Level FlightAware
12:59AM 44.7600 -66.9280 54° Northeast 563 648 34,000  Level FlightAware
01:00AM 44.8190 -66.8110 55° Northeast 565 650 34,000  Level FlightAware
01:01AM 44.8740 -66.7030 54° Northeast 565 650 34,000  Level FlightAware
01:01AM 44.9210 -66.6090 55° Northeast 567 652 34,000  Level FlightAware
01:02AM 44.9760 -66.5030 54° Northeast 567 652 34,000  Level FlightAware
01:02AM 45.0280 -66.3990 55° Northeast 569 655 34,000  Level FlightAware
01:03AM 45.0830 -66.2890 55° Northeast 569 655 34,000  Level FlightAware
01:03AM 45.1360 -66.1820 55° Northeast 568 654 34,000  Level FlightAware
01:04AM 45.1900 -66.0740 55° Northeast 568 654 34,000  Level FlightAware
01:05AM 45.2500 -65.9510 55° Northeast 570 656 34,000  Level FlightAware
01:05AM 45.2960 -65.8590 55° Northeast 570 656 34,000  Level FlightAware
01:06AM 45.3490 -65.7510 55° Northeast 570 656 34,000  Level FlightAware
01:06AM 45.4030 -65.6420 55° Northeast 570 656 34,000  Level FlightAware
01:07AM 45.4550 -65.5330 56° Northeast 570 656 34,000  Level FlightAware
01:08AM 45.5230 -65.3950 55° Northeast 571 657 34,000  Level FlightAware
01:08AM 45.5960 -65.2430 55° Northeast 576 663 34,000  Level FlightAware
01:09AM 45.6470 -65.1400 55° Northeast 576 663 34,000  Level FlightAware
01:10AM 45.6950 -65.0420 55° Northeast 576 663 34,000  Level FlightAware
01:10AM 45.7690 -64.8840 56° Northeast 579 666 34,000  Level FlightAware
01:11AM 45.8130 -64.7900 56° Northeast 579 666 34,000  Level FlightAware
01:12AM 45.8750 -64.6630 55° Northeast 580 667 34,000  Level FlightAware
01:12AM 45.9190 -64.5710 55° Northeast 580 667 34,000  Level FlightAware
01:13AM 45.9660 -64.4750 55° Northeast 580 667 34,000  Level FlightAware
01:13AM 46.0130 -64.3780 55° Northeast 580 667 34,000  Level FlightAware
01:14AM 46.0600 -64.2810 55° Northeast 580 667 34,000  Level FlightAware
01:15AM 46.1070 -64.1840 55° Northeast 580 667 34,000  Level FlightAware
01:15AM 46.1540 -64.0870 55° Northeast 580 667 34,000  Level FlightAware
01:16AM 46.1990 -63.9950 55° Northeast 580 667 34,000  Level FlightAware
01:16AM 46.2460 -63.8980 55° Northeast 580 667 34,000  Level FlightAware
01:17AM 46.2930 -63.8010 55° Northeast 580 667 34,000  Level FlightAware
01:18AM 46.3400 -63.7030 55° Northeast 580 667 34,000  Level FlightAware
01:18AM 46.3870 -63.6060 55° Northeast 580 667 34,000  Level FlightAware
01:19AM 46.4340 -63.5080 55° Northeast 580 667 34,000  Level FlightAware
01:19AM 46.4810 -63.4100 55° Northeast 580 667 34,000  Level FlightAware
01:20AM 46.5290 -63.3130 54° Northeast 580 667 34,000  Level FlightAware
01:21AM 46.5760 -63.2150 55° Northeast 580 667 34,000  Level FlightAware
01:21AM 46.7360 -62.7750 62° Northeast 582 670 34,000  Level FlightAware
01:22AM 46.7920 -62.6500 57° Northeast 582 670 34,000  Level FlightAware
01:22AM 46.8370 -62.5490 57° Northeast 582 670 34,000  Level FlightAware
01:23AM 46.8830 -62.4450 57° Northeast 582 670 34,000  Level FlightAware
01:24AM 46.9290 -62.3410 57° Northeast 582 670 34,000  Level FlightAware
01:24AM 46.9740 -62.2400 57° Northeast 582 670 34,000  Level FlightAware
01:25AM 47.0180 -62.1390 57° Northeast 582 670 34,000  Level FlightAware
01:25AM 47.0630 -62.0370 57° Northeast 582 670 34,000  Level FlightAware
01:26AM 47.1590 -61.7990 59° Northeast 580 667 34,000  Level FlightAware
01:27AM 47.2400 -61.6080 58° Northeast 582 670 34,000  Level FlightAware
01:28AM 47.2860 -61.5010 58° Northeast 583 671 34,000  Level FlightAware
01:28AM 47.3350 -61.3860 58° Northeast 583 671 34,000  Level FlightAware
01:29AM 47.3870 -61.2610 58° Northeast 583 671 34,000  Level FlightAware
01:29AM 47.4330 -61.1520 58° Northeast 583 671 34,000  Level FlightAware
01:30AM 47.5100 -60.9650 59° Northeast 585 673 34,000  Level FlightAware
01:31AM 47.5540 -60.8610 58° Northeast 585 673 34,000  Level FlightAware
01:31AM 47.5980 -60.7570 58° Northeast 585 673 34,000  Level FlightAware
01:32AM 47.6420 -60.6530 58° Northeast 585 673 34,000  Level FlightAware
01:33AM 47.6860 -60.5480 58° Northeast 585 673 34,000  Level FlightAware
01:33AM 47.7290 -60.4440 58° Northeast 585 673 34,000  Level FlightAware
01:34AM 47.7730 -60.3400 58° Northeast 585 673 34,000  Level FlightAware
01:34AM 47.8170 -60.2350 58° Northeast 585 673 34,000  Level FlightAware
01:35AM 47.8620 -60.1270 58° Northeast 585 673 34,000  Level FlightAware
01:36AM 47.9060 -60.0230 58° Northeast 585 673 34,000  Level FlightAware
01:36AM 48.0300 -59.6740 62° Northeast 585 673 34,000  Level FlightAware
01:37AM 48.0790 -59.5520 59° Northeast 586 674 34,000  Level FlightAware
01:38AM 48.1260 -59.4290 60° Northeast 586 674 34,000  Level FlightAware
01:38AM 48.1760 -59.3030 59° Northeast 586 674 34,000  Level FlightAware
01:39AM 48.2190 -59.1910 60° Northeast 585 673 34,000  Level FlightAware
01:39AM 48.2660 -59.0720 59° Northeast 584 672 34,000  Level FlightAware
01:40AM 48.3170 -58.9350 61° Northeast 584 672 34,000  Level FlightAware
01:40AM 48.3580 -58.8290 60° Northeast 585 673 34,000  Level FlightAware
01:41AM 48.4120 -58.6880 60° Northeast 584 672 34,000  Level FlightAware
01:42AM 48.4590 -58.5610 61° Northeast 584 672 34,000  Level FlightAware
01:42AM 48.5060 -58.4410 59° Northeast 582 670 34,000  Level FlightAware
01:43AM 48.5520 -58.3170 61° Northeast 582 670 34,000  Level FlightAware
01:43AM 48.5980 -58.1940 60° Northeast 581 669 34,000  Level FlightAware
01:44AM 48.6440 -58.0700 61° Northeast 581 669 34,000  Level FlightAware
01:45AM 48.6900 -57.9460 61° Northeast 581 669 34,000  Level FlightAware
01:45AM 48.7360 -57.8180 61° Northeast 579 666 34,000  Level FlightAware
01:46AM 48.7780 -57.7010 61° Northeast 576 663 34,000  Level FlightAware
01:46AM 48.8210 -57.5750 63° Northeast 575 662 34,000  Level FlightAware
01:47AM 48.8640 -57.4420 64° Northeast 573 659 34,000  Level FlightAware
01:48AM 48.9040 -57.3230 63° Northeast 571 657 34,000  Level FlightAware
01:48AM 48.9520 -57.1760 64° Northeast 574 661 34,000  Level FlightAware
01:49AM 48.9940 -57.0490 63° Northeast 577 664 34,000  Level FlightAware
01:49AM 49.0350 -56.9220 64° Northeast 578 665 34,000  Level FlightAware
01:50AM 49.0770 -56.7950 63° Northeast 575 662 34,000  Level FlightAware
01:51AM 49.1180 -56.6680 64° Northeast 577 664 34,000  Level FlightAware
01:51AM 49.1650 -56.5210 64° Northeast 578 665 34,000  Level FlightAware
01:52AM 49.2000 -56.4110 64° Northeast 579 666 34,000  Level FlightAware
01:52AM 49.2420 -56.2790 64° Northeast 578 665 34,000  Level FlightAware
01:53AM 49.2890 -56.1320 64° Northeast 578 665 34,000  Level FlightAware
01:53AM 49.3230 -56.0250 64° Northeast 581 669 34,000  Level FlightAware
01:54AM 49.3640 -55.8950 64° Northeast 583 671 34,000  Level FlightAware
01:55AM 49.4050 -55.7640 64° Northeast 587 676 34,000  Level FlightAware
01:55AM 49.4520 -55.6130 64° Northeast 593 682 34,000  Level FlightAware
01:56AM 49.4870 -55.4980 65° Northeast 596 686 34,000  Level FlightAware
01:56AM 49.5290 -55.3640 64° Northeast 599 689 34,000  Level FlightAware
01:57AM 49.5700 -55.2290 65° Northeast 600 690 34,000  Level FlightAware
01:58AM 49.6160 -55.0740 65° Northeast 602 693 34,000  Level FlightAware
01:58AM 49.6520 -54.9570 65° Northeast 602 693 34,000  Level FlightAware
01:59AM 49.6930 -54.8220 65° Northeast 598 688 34,000  Level FlightAware
01:59AM 49.7390 -54.6680 65° Northeast 593 682 34,000  Level FlightAware
02:00AM 49.7730 -54.5520 66° East 592 681 34,000  Level FlightAware
02:00AM 49.8130 -54.4180 65° Northeast 591 680 34,000  Level FlightAware
02:01AM 49.8590 -54.2610 66° East 589 678 34,000  Level FlightAware
02:02AM 49.8920 -54.1500 65° Northeast 586 674 34,000  Level FlightAware
02:02AM 49.9300 -54.0160 66° East 584 672 34,000  Level FlightAware
02:03AM 49.9690 -53.8820 66° East 581 669 34,000  Level FlightAware
02:03AM 50.0130 -53.7300 66° East 583 671 34,000  Level FlightAware
02:04AM 50.0460 -53.6140 66° East 587 676 34,000  Level FlightAware
02:05AM 50.0830 -53.4830 66° East 588 677 34,000  Level FlightAware
02:05AM 50.1280 -53.3240 66° East 590 679 34,000  Level FlightAware
02:06AM 50.1610 -53.2070 66° East 593 682 34,000  Level FlightAware
02:06AM 50.2000 -53.0700 66° East 592 681 34,000  Level FlightAware
02:07AM 50.2380 -52.9290 67° East 593 682 34,000  Level FlightAware
02:08AM 50.2810 -52.7750 66° East 594 684 34,000  Level FlightAware
02:08AM 50.3120 -52.6650 66° East 594 684 34,000  Level FlightAware
02:09AM 50.3550 -52.5070 67° East 595 685 34,000  Level FlightAware
02:10AM 50.4030 -52.3270 67° East 595 685 34,000  Level FlightAware
02:10AM 50.4360 -52.2050 67° East 595 685 34,000  Level FlightAware
02:11AM 50.4690 -52.0840 67° East 595 685 34,000  Level FlightAware
02:11AM 50.5020 -51.9620 67° East 595 685 34,000  Level FlightAware
02:12AM 50.5350 -51.8400 67° East 595 685 34,000  Level FlightAware
02:13AM 50.5680 -51.7180 67° East 595 685 34,000  Level FlightAware
02:13AM 50.6010 -51.5960 67° East 595 685 34,000  Level FlightAware
02:14AM 50.6340 -51.4730 67° East 595 685 34,000  Level FlightAware
02:14AM 50.6660 -51.3510 67° East 595 685 34,000  Level FlightAware
02:15AM 50.6990 -51.2290 67° East 595 685 34,000  Level FlightAware
02:16AM 50.7320 -51.1060 67° East 595 685 34,000  Level FlightAware
02:16AM 50.7660 -50.9800 67° East 595 685 34,000  Level FlightAware
02:17AM 50.8000 -50.8540 67° East 595 685 34,000  Level FlightAware
02:17AM 50.8330 -50.7310 67° East 595 685 34,000  Level FlightAware
02:18AM 50.8660 -50.6090 67° East 595 685 34,000  Level FlightAware
02:19AM 50.8990 -50.4860 67° East 595 685 34,000  Level FlightAware
02:19AM 51.0000 -49.8833 67° East 590 679 34,000  Level Gander Center
02:20AM 51.0667 -49.6167 68° East 600 690 34,000  Level Gander Center
02:21AM 51.0000 -50.0000 68° East 596 686 34,000  Level ETMS Enhanced Traffic Management System
02:30AM 51.6488 -47.2718 70° East 596 686 34,000  Level FlightAware Transoceanic
02:31AM 51.7047 -47.0200 70° East 596 686 34,000  Level FlightAware Transoceanic
02:32AM 51.7599 -46.7676 71° East 596 686 34,000  Level FlightAware Transoceanic
02:33AM 51.8147 -46.5146 71° East 596 686 34,000  Level FlightAware Transoceanic
02:34AM 51.8688 -46.2609 71° East 596 686 34,000  Level FlightAware Transoceanic
02:35AM 51.9225 -46.0066 71° East 596 686 34,000  Level FlightAware Transoceanic
02:36AM 51.9756 -45.7518 71° East 596 686 34,000  Level FlightAware Transoceanic
02:37AM 52.0281 -45.4963 72° East 596 686 34,000  Level FlightAware Transoceanic
02:38AM 52.0801 -45.2402 72° East 596 686 34,000  Level FlightAware Transoceanic
02:39AM 52.1315 -44.9836 72° East 596 686 34,000  Level FlightAware Transoceanic
02:40AM 52.1824 -44.7263 72° East 596 686 34,000  Level FlightAware Transoceanic
02:41AM 52.2327 -44.4685 72° East 596 686 34,000  Level FlightAware Transoceanic
02:42AM 52.2824 -44.2101 73° East 596 686 34,000  Level FlightAware Transoceanic
02:43AM 52.3316 -43.9511 73° East 596 686 34,000  Level FlightAware Transoceanic
02:44AM 52.3802 -43.6915 73° East 596 686 34,000  Level FlightAware Transoceanic
02:45AM 52.4283 -43.4314 73° East 596 686 34,000  Level FlightAware Transoceanic
02:46AM 52.4757 -43.1707 73° East 596 686 34,000  Level FlightAware Transoceanic
02:47AM 52.5227 -42.9094 74° East 596 686 34,000  Level FlightAware Transoceanic
02:48AM 52.5690 -42.6476 74° East 596 686 34,000  Level FlightAware Transoceanic
02:49AM 52.6147 -42.3852 74° East 596 686 34,000  Level FlightAware Transoceanic
02:50AM 52.6599 -42.1223 74° East 596 686 34,000  Level FlightAware Transoceanic
02:51AM 52.7044 -41.8589 75° East 596 686 34,000  Level FlightAware Transoceanic
02:52AM 52.7485 -41.5949 75° East 596 686 34,000  Level FlightAware Transoceanic
02:53AM 52.7919 -41.3304 75° East 596 686 34,000  Level FlightAware Transoceanic
02:54AM 52.8347 -41.0653 75° East 596 686 34,000  Level FlightAware Transoceanic
02:55AM 52.8769 -40.7998 75° East 596 686 34,000  Level FlightAware Transoceanic
02:56AM 52.9185 -40.5337 76° East 596 686 34,000  Level FlightAware Transoceanic
02:57AM 52.9596 -40.2671 76° East 596 686 34,000  Level FlightAware Transoceanic
02:58AM 52.9952 -40.0318 76° East  Level FlightAware Approximate
02:59AM 53.0306 -39.7949 76° East  Level FlightAware Approximate
03:00AM 53.0252 -39.8251 76° East  Level FlightAware Approximate
03:01AM 53.0590 -39.5874 77° East  Level FlightAware Approximate
03:02AM 53.0923 -39.3494 77° East  Level FlightAware Approximate
03:03AM 53.1252 -39.1109 77° East  Level FlightAware Approximate
03:04AM 53.1576 -38.8721 77° East  Level FlightAware Approximate
03:05AM 53.1895 -38.6329 77° East  Level FlightAware Approximate
03:06AM 53.2209 -38.3934 78° East  Level FlightAware Approximate
03:07AM 53.2518 -38.1536 78° East  Level FlightAware Approximate
03:08AM 53.2823 -37.9133 78° East  Level FlightAware Approximate
03:09AM 53.3122 -37.6728 78° East  Level FlightAware Approximate
03:10AM 53.3417 -37.4319 78° East  Level FlightAware Approximate
03:11AM 53.3707 -37.1907 79° East  Level FlightAware Approximate
03:12AM 53.3993 -36.9492 79° East  Level FlightAware Approximate
03:13AM 53.4273 -36.7073 79° East  Level FlightAware Approximate
03:14AM 53.4548 -36.4651 79° East  Level FlightAware Approximate
03:15AM 53.4819 -36.2226 79° East  Level FlightAware Approximate
03:16AM 53.5084 -35.9798 79° East  Level FlightAware Approximate
03:17AM 53.5345 -35.7367 80° East  Level FlightAware Approximate
03:18AM 53.5601 -35.4933 80° East  Level FlightAware Approximate
03:19AM 53.5852 -35.2496 80° East  Level FlightAware Approximate
03:20AM 53.6097 -35.0056 80° East  Level FlightAware Approximate
03:21AM 53.6338 -34.7614 80° East  Level FlightAware Approximate
03:22AM 53.6574 -34.5169 81° East  Level FlightAware Approximate
03:23AM 53.6805 -34.2721 81° East  Level FlightAware Approximate
03:24AM 53.7031 -34.0270 81° East  Level FlightAware Approximate
03:25AM 53.7252 -33.7817 81° East  Level FlightAware Approximate
03:26AM 53.7467 -33.5361 81° East  Level FlightAware Approximate
03:27AM 53.7678 -33.2902 82° East  Level FlightAware Approximate
03:28AM 53.7884 -33.0442 82° East  Level FlightAware Approximate
03:29AM 53.8085 -32.7979 82° East  Level FlightAware Approximate
03:30AM 53.8280 -32.5513 82° East  Level FlightAware Approximate
03:31AM 53.8471 -32.3045 82° East  Level FlightAware Approximate
03:32AM 53.8657 -32.0575 83° East  Level FlightAware Approximate
03:33AM 53.8837 -31.8103 83° East  Level FlightAware Approximate
03:34AM 53.9013 -31.5629 83° East  Level FlightAware Approximate
03:35AM 53.9183 -31.3152 83° East  Level FlightAware Approximate
03:36AM 53.9348 -31.0674 83° East  Level FlightAware Approximate
03:37AM 53.9508 -30.8194 84° East  Level FlightAware Approximate
03:38AM 53.9663 -30.5712 84° East  Level FlightAware Approximate
03:39AM 53.9813 -30.3228 84° East  Level FlightAware Approximate
03:40AM 53.9958 -30.0742 84° East  Level FlightAware Approximate
03:41AM 54.0071 -29.8251 86° East  Level FlightAware Approximate
03:42AM 54.0169 -29.5758 86° East  Level FlightAware Approximate
03:43AM 54.0261 -29.3263 86° East  Level FlightAware Approximate
03:44AM 54.0349 -29.0767 86° East  Level FlightAware Approximate
03:45AM 54.0430 -28.8270 87° East  Level FlightAware Approximate
03:46AM 54.0507 -28.5772 87° East  Level FlightAware Approximate
03:47AM 54.0579 -28.3273 87° East  Level FlightAware Approximate
03:48AM 54.0645 -28.0774 87° East  Level FlightAware Approximate
03:49AM 54.0707 -27.8273 88° East  Level FlightAware Approximate
03:50AM 54.0763 -27.5772 88° East  Level FlightAware Approximate
03:51AM 54.0814 -27.3270 88° East  Level FlightAware Approximate
03:52AM 54.0859 -27.0768 88° East  Level FlightAware Approximate
03:53AM 54.0900 -26.8265 88° East  Level FlightAware Approximate
03:54AM 54.0935 -26.5762 89° East  Level FlightAware Approximate
03:55AM 54.0965 -26.3258 89° East  Level FlightAware Approximate
03:56AM 54.0990 -26.0754 89° East  Level FlightAware Approximate
03:57AM 54.1010 -25.8250 89° East  Level FlightAware Approximate
03:58AM 54.1024 -25.5745 89° East  Level FlightAware Approximate
03:59AM 54.1034 -25.3241 90° East  Level FlightAware Approximate
04:00AM 54.1038 -25.0736 90° East  Level FlightAware Approximate
04:01AM 54.1037 -24.8231 90° East  Level FlightAware Approximate
04:02AM 54.1030 -24.5726 90° East  Level FlightAware Approximate
04:03AM 54.1019 -24.3222 90° East  Level FlightAware Approximate
04:04AM 54.1002 -24.0717 91° East  Level FlightAware Approximate
04:05AM 54.0980 -23.8213 91° East  Level FlightAware Approximate
04:06AM 54.0953 -23.5709 91° East  Level FlightAware Approximate
04:07AM 54.0921 -23.3206 91° East  Level FlightAware Approximate
04:08AM 54.0884 -23.0702 91° East  Level FlightAware Approximate
04:09AM 54.0841 -22.8200 92° East  Level FlightAware Approximate
04:10AM 54.0793 -22.5698 92° East  Level FlightAware Approximate
04:11AM 54.0740 -22.3196 92° East  Level FlightAware Approximate
04:12AM 54.0682 -22.0709 92° East  Level FlightAware Approximate
04:13AM 54.0619 -21.8221 92° East  Level FlightAware Approximate
04:14AM 54.0551 -21.5735 93° East  Level FlightAware Approximate
04:15AM 54.0478 -21.3250 93° East  Level FlightAware Approximate
04:16AM 54.0399 -21.0765 93° East  Level FlightAware Approximate
04:17AM 54.0316 -20.8282 93° East  Level FlightAware Approximate
04:18AM 54.0227 -20.5799 93° East  Level FlightAware Approximate
04:19AM 54.0133 -20.3318 94° East  Level FlightAware Approximate
04:20AM 54.0035 -20.0838 94° East  Level FlightAware Approximate
04:21AM 53.9903 -19.8363 96° East  Level FlightAware Approximate
04:22AM 53.9752 -19.5891 96° East  Level FlightAware Approximate
04:23AM 53.9596 -19.3422 96° East  Level FlightAware Approximate
04:24AM 53.9435 -19.0955 96° East  Level FlightAware Approximate
04:25AM 53.9269 -18.8489 96° East  Level FlightAware Approximate
04:26AM 53.9099 -18.6026 97° East  Level FlightAware Approximate
04:27AM 53.8923 -18.3564 97° East  Level FlightAware Approximate
04:28AM 53.8741 -18.1092 97° East  Level FlightAware Approximate
04:29AM 53.8553 -17.8622 97° East  Level FlightAware Approximate
04:29AM 53.9490 -14.3230 97° East 560 644 34,000  Level FlightAware
04:30AM 53.8361 -17.6154 97° East  Level FlightAware Approximate
04:30AM 53.9260 -14.1770 105° East 560 644 34,000  Level FlightAware
04:30AM 53.9010 -14.0060 104° East 557 641 34,000  Level FlightAware
04:31AM 53.8780 -13.8720 106° East 555 639 34,000  Level FlightAware
04:31AM 53.8500 -13.7080 106° East 553 636 34,000  Level FlightAware
04:32AM 53.8270 -13.5710 106° East 552 635 34,000  Level FlightAware
04:33AM 53.8020 -13.4260 106° East 551 634 34,000 300 Level FlightAware
04:33AM 53.7760 -13.2760 106° East 557 641 34,400 660 Climbing FlightAware
04:34AM 53.7510 -13.1280 106° East 567 652 34,800 780 Climbing FlightAware
04:34AM 53.7200 -12.9530 107° East 573 659 35,400 840 Climbing FlightAware
04:35AM 53.6930 -12.8030 107° East 574 661 35,900 840 Climbing FlightAware
04:36AM 53.6660 -12.6490 106° East 574 661 36,400 900 Climbing FlightAware
04:36AM 53.6380 -12.4950 107° East 570 656 37,000 480 Climbing FlightAware
04:37AM 53.6110 -12.3510 107° East 569 655 37,000  Level FlightAware
04:37AM 53.5840 -12.1980 106° East 564 649 37,000  Level FlightAware
04:38AM 53.5530 -12.0360 108° East 560 644 37,000  Level FlightAware
04:39AM 53.5220 -11.8660 107° East 556 640 37,000  Level FlightAware
04:39AM 53.4940 -11.7220 108° East 553 636 37,000  Level FlightAware
04:40AM 53.4710 -11.5990 107° East 551 634 37,000  Level FlightAware
04:40AM 53.4430 -11.4520 108° East 550 633 37,000  Level FlightAware
04:41AM 53.4150 -11.3100 108° East 550 633 37,000  Level FlightAware
04:42AM 53.3840 -11.1470 108° East 549 632 37,000  Level FlightAware
04:42AM 53.3610 -11.0300 108° East 549 632 37,000  Level FlightAware
04:43AM 53.3330 -10.8890 108° East 547 629 37,000  Level FlightAware
04:43AM 53.3040 -10.7440 108° East 546 628 37,000  Level FlightAware
04:44AM 53.2760 -10.6040 108° East 544 626 37,000  Level FlightAware
04:45AM 53.2480 -10.4640 108° East 543 625 37,000  Level FlightAware
04:45AM 53.2180 -10.3170 109° East 544 626 37,000  Level FlightAware
04:46AM 53.1900 -10.1780 109° East 543 625 37,000  Level FlightAware
04:46AM 53.1620 -10.0400 109° East 540 621 37,000  Level FlightAware
04:47AM 53.1340 -9.9070 109° East 538 619 37,000  Level FlightAware
04:47AM 53.1050 -9.7660 109° East 538 619 37,000  Level FlightAware
04:48AM 53.0760 -9.6300 109° East 538 619 37,000  Level FlightAware
04:49AM 53.0480 -9.4940 109° East 536 617 37,000  Level FlightAware
04:49AM 53.0180 -9.3580 110° East 535 616 37,000  Level FlightAware
04:50AM 52.9900 -9.2230 109° East 534 615 37,000  Level FlightAware
04:50AM 52.9600 -9.0880 110° East 534 615 37,000  Level FlightAware
04:51AM 52.9310 -8.9540 110° East 533 613 37,000  Level FlightAware
04:52AM 52.9020 -8.8190 110° East 534 615 37,000  Level FlightAware
04:52AM 52.8680 -8.6660 110° East 533 613 37,000  Level FlightAware
04:52AM 52.8644 -8.6489 110° East 498 573 37,000  Level FlightAware UK
04:53AM 52.8388 -8.5340 110° East 498 573 37,000  Level FlightAware UK
04:53AM 52.8390 -8.5360 110° East 530 610 37,000  Level FlightAware
04:53AM 52.8090 -8.3990 110° East 530 610 37,000  Level FlightAware
04:54AM 52.7830 -8.2850 111° Southeast 529 609 37,000  Level FlightAware
04:54AM 52.7530 -8.1560 111° Southeast 528 608 37,000  Level FlightAware
04:55AM 52.7230 -8.0200 110° East 527 606 37,000  Level FlightAware
04:56AM 52.6930 -7.8920 111° Southeast 526 605 37,000  Level FlightAware
04:56AM 52.6620 -7.7560 111° Southeast 525 604 37,000  Level FlightAware
04:57AM 52.6370 -7.6480 111° Southeast 524 603 37,000  Level FlightAware
04:57AM 52.6328 -7.6239 111° Southeast 498 573 37,000  Level FlightAware UK
04:57AM 52.6068 -7.5118 111° Southeast 496 571 37,000  Level FlightAware UK
04:57AM 52.6030 -7.4950 111° Southeast 523 602 37,000  Level FlightAware
04:58AM 52.5720 -7.3680 112° Southeast 523 602 37,000  Level FlightAware
04:59AM 52.5400 -7.2340 111° Southeast 522 601 37,000  Level FlightAware
04:59AM 52.5100 -7.1080 111° Southeast 525 604 37,000  Level FlightAware
05:00AM 52.4790 -6.9780 111° Southeast 525 604 37,000  Level FlightAware
05:00AM 52.4481 -6.8442 111° Southeast 502 578 37,000  Level FlightAware UK
05:00AM 52.4480 -6.8460 111° Southeast 523 602 37,000  Level FlightAware
05:01AM 52.4220 -6.7430 112° Southeast 523 602 37,000  Level FlightAware
05:01AM 52.3890 -6.6030 111° Southeast 522 601 37,000  Level FlightAware
05:02AM 52.3570 -6.4710 112° Southeast 521 600 37,000  Level FlightAware
05:03AM 52.3240 -6.3400 112° Southeast 520 598 37,000  Level FlightAware
05:03AM 52.2980 -6.2310 111° Southeast 520 598 37,000  Level FlightAware
05:04AM 52.2602 -6.0778 111° Southeast 496 571 37,000  Level FlightAware UK
05:04AM 52.2600 -6.0830 111° Southeast 518 596 37,000  Level FlightAware
05:04AM 52.2332 -5.9696 111° Southeast 500 575 37,000  Level FlightAware UK
05:04AM 52.2260 -5.9420 111° Southeast 517 595 37,000  Level FlightAware
05:05AM 52.1940 -5.8160 112° Southeast 516 594 37,000  Level FlightAware
05:06AM 52.1640 -5.6970 112° Southeast 517 595 37,000  Level FlightAware
05:06AM 52.1320 -5.5720 113° Southeast 518 596 37,000  Level FlightAware
05:07AM 52.0990 -5.4420 112° Southeast 517 595 37,000  Level FlightAware
05:07AM 52.0690 -5.3280 113° Southeast 518 596 37,000  Level FlightAware
05:08AM 52.0360 -5.1990 113° Southeast 518 596 37,000  Level FlightAware
05:08AM 52.0020 -5.0610 112° Southeast 521 600 37,000  Level FlightAware
05:09AM 51.9830 -4.9360 104° East 525 604 37,000  Level FlightAware
05:10AM 51.9670 -4.8040 101° East 523 602 37,000  Level FlightAware
05:10AM 51.9510 -4.6580 100° East 522 601 37,000  Level FlightAware
05:11AM 51.9350 -4.5280 101° East 522 601 37,000  Level FlightAware
05:11AM 51.9200 -4.4020 101° East 522 601 37,000  Level FlightAware
05:12AM 51.9040 -4.2640 101° East 522 601 37,000  Level FlightAware
05:13AM 51.8860 -4.1220 102° East 520 598 37,000  Level FlightAware
05:13AM 51.8710 -3.9970 101° East 520 598 37,000  Level FlightAware
05:14AM 51.8540 -3.8640 102° East 520 598 37,000  Level FlightAware
05:14AM 51.8370 -3.7260 101° East 521 600 37,000  Level FlightAware
05:15AM 51.8256 -3.6388 102° East 522 601 37,000  Level FlightAware ADS-B
05:15AM 51.8105 -3.5204 102° East 523 602 37,000  Level FlightAware ADS-B
05:16AM 51.7940 -3.3910 102° East 522 601 37,000  Level FlightAware ADS-B
05:16AM 51.7783 -3.2694 102° East 520 598 37,000  Level FlightAware ADS-B
05:17AM 51.7606 -3.1335 102° East 518 596 37,000  Level FlightAware ADS-B
05:17AM 51.7437 -3.0057 102° East 516 594 37,000  Level FlightAware ADS-B
05:18AM 51.7275 -2.8857 102° East 515 593 37,000  Level FlightAware ADS-B
05:19AM 51.7117 -2.7659 102° East 514 592 37,000  Level FlightAware ADS-B
05:19AM 51.6934 -2.6313 102° East 514 592 37,000  Level FlightAware ADS-B
05:20AM 51.6764 -2.5083 103° East 514 592 37,000  Level FlightAware ADS-B
05:20AM 51.6606 -2.3926 102° East 514 592 37,000  Level FlightAware ADS-B
05:21AM 51.6444 -2.2769 103° East 514 592 37,000  Level FlightAware ADS-B
05:21AM 51.6281 -2.1618 103° East 514 592 37,000  Level FlightAware ADS-B
05:22AM 51.6102 -2.0350 103° East 515 593 37,000  Level FlightAware ADS-B
05:22AM 51.5925 -1.9084 103° East 516 594 37,000  Level FlightAware ADS-B
05:23AM 51.5759 -1.7927 103° East 516 594 37,000  Level FlightAware ADS-B
05:23AM 51.5596 -1.6810 103° East 518 596 37,000  Level FlightAware ADS-B
05:24AM 51.5409 -1.5700 105° East 515 593 37,000  Level FlightAware ADS-B
05:24AM 51.5221 -1.4556 105° East 517 595 37,000  Level FlightAware ADS-B
05:25AM 51.5062 -1.3432 103° East 521 600 37,000  Level FlightAware ADS-B
05:25AM 51.4918 -1.2297 101° East 522 601 37,000  Level FlightAware ADS-B
05:26AM 51.4774 -1.1116 101° East 523 602 37,000  Level FlightAware ADS-B
05:26AM 51.4628 -0.9902 101° East 523 602 37,000  Level FlightAware ADS-B
05:27AM 51.4475 -0.8652 101° East 522 601 37,000  Level FlightAware ADS-B
05:28AM 51.4330 -0.7477 101° East 521 600 37,000  Level FlightAware ADS-B
05:28AM 51.4181 -0.6309 102° East 521 600 37,000  Level FlightAware ADS-B
05:29AM 51.4032 -0.5175 102° East 520 598 37,000  Level FlightAware ADS-B
05:29AM 51.3877 -0.3971 102° East 520 598 37,000  Level FlightAware ADS-B
05:30AM 51.3726 -0.2808 102° East 519 597 37,000  Level FlightAware ADS-B
05:30AM 51.3568 -0.1608 102° East 518 596 37,000  Level FlightAware ADS-B
05:31AM 51.3416 -0.0451 102° East 518 596 37,000  Level FlightAware ADS-B
05:31AM 51.3252 0.0781 102° East 518 596 37,000  Level FlightAware ADS-B
05:32AM 51.3111 0.1943 101° East 518 596 37,000  Level FlightAware ADS-B
05:32AM 51.2964 0.3144 101° East 516 594 37,000  Level FlightAware ADS-B
05:33AM 51.2755 0.4858 101° East 515 593 37,000  Level FlightAware ADS-B
05:34AM 51.2597 0.6118 101° East 513 590 37,000  Level FlightAware ADS-B
05:34AM 51.2453 0.7265 101° East 511 588 37,000  Level FlightAware ADS-B
05:35AM 51.2306 0.8406 102° East 510 587 37,000  Level FlightAware ADS-B
05:35AM 51.2162 0.9507 102° East 509 586 37,000  Level FlightAware ADS-B
05:36AM 51.2015 1.0641 102° East 508 585 37,000  Level FlightAware ADS-B
05:36AM 51.1827 1.2066 102° East 507 583 37,000  Level FlightAware ADS-B
05:37AM 51.1681 1.3775 102° East 488 562 37,000  Level FlightAware UK
05:37AM 51.1680 1.3760 102° East 510 587 37,000  Level FlightAware
05:38AM 51.1640 1.4890 102° East 509 586 37,000  Level FlightAware
05:38AM 51.1632 1.5124 102° East 490 564 37,000  Level FlightAware UK
05:38AM 51.1586 1.6244 102° East 490 564 37,000  Level FlightAware UK
05:38AM 51.1570 1.6450 102° East 508 585 37,000  Level FlightAware
05:39AM 51.1450 1.7740 98° East 504 580 37,000  Level FlightAware
05:39AM 51.1230 1.8860 107° East 497 572 37,000  Level FlightAware
05:40AM 51.0880 2.0010 116° Southeast 493 567 37,000  Level FlightAware
05:41AM 51.0510 2.1170 117° Southeast 492 566 37,000  Level FlightAware
05:41AM 51.0160 2.2300 116° Southeast 489 563 37,000  Level FlightAware
05:42AM 50.9810 2.3420 116° Southeast 489 563 37,000  Level FlightAware
05:42AM 50.9440 2.4610 116° Southeast 491 565 37,000  Level FlightAware
05:43AM 50.9110 2.5640 117° Southeast 493 567 37,000  Level FlightAware
05:43AM 50.8750 2.6850 115° Southeast 495 570 37,000  Level FlightAware
05:44AM 50.8450 2.7870 115° Southeast 495 570 37,000  Level FlightAware
05:45AM 50.8110 2.9010 115° Southeast 495 570 37,000  Level FlightAware
05:45AM 50.7710 3.0310 116° Southeast 494 568 37,000  Level FlightAware
05:46AM 50.7360 3.1480 115° Southeast 491 565 37,000  Level FlightAware
05:46AM 50.7010 3.2590 116° Southeast 491 565 37,000  Level FlightAware
05:47AM 50.6632 3.3848 116° Southeast 490 564 37,000  Level FlightAware UK
05:47AM 50.6640 3.3780 116° Southeast 491 565 37,000  Level FlightAware
05:48AM 50.6310 3.4850 116° Southeast 490 564 37,000  Level FlightAware
05:48AM 50.5970 3.5950 116° Southeast 489 563 37,000  Level FlightAware
05:49AM 50.5620 3.7070 116° Southeast 489 563 37,000  Level FlightAware
05:49AM 50.5200 3.8420 116° Southeast 489 563 37,000  Level FlightAware
05:50AM 50.4800 3.9670 117° Southeast 488 562 37,000  Level FlightAware
05:51AM 50.4460 4.0750 116° Southeast 488 562 37,000  Level FlightAware
05:51AM 50.4110 4.1840 117° Southeast 488 562 37,000  Level FlightAware
05:52AM 50.3730 4.3040 116° Southeast 487 560 37,000  Level FlightAware
05:52AM 50.3370 4.4150 117° Southeast 485 558 37,000  Level FlightAware
05:53AM 50.3040 4.5190 117° Southeast 483 556 37,000  Level FlightAware
05:53AM 50.2987 4.5342 117° Southeast 1 1 37,000  Level FlightAware UK
05:54AM 50.2700 4.6250 117° Southeast 483 556 37,000  Level FlightAware
05:54AM 50.2330 4.7350 118° Southeast 482 555 37,000  Level FlightAware
05:55AM 50.2020 4.8310 117° Southeast 481 554 37,000  Level FlightAware
05:55AM 50.1600 4.9590 117° Southeast 481 554 37,000  Level FlightAware
05:56AM 50.1250 5.0670 117° Southeast 479 551 37,000  Level FlightAware
05:57AM 50.0880 5.1750 118° Southeast 479 551 37,000  Level FlightAware
05:57AM 50.0530 5.2830 117° Southeast 478 550 37,000  Level FlightAware
05:58AM 50.0160 5.3930 118° Southeast 478 550 37,000  Level FlightAware
05:58AM 49.9810 5.4980 117° Southeast 483 556 37,000  Level FlightAware
05:59AM 49.9440 5.6090 117° Southeast 483 556 37,000  Level FlightAware
05:59AM 49.9100 5.7070 118° Southeast 483 556 37,000  Level FlightAware
06:00AM 49.8700 5.8260 118° Southeast 484 557 37,000  Level FlightAware
06:01AM 49.8250 5.9580 118° Southeast 484 557 37,000  Level FlightAware
06:01AM 49.7840 6.0770 118° Southeast 483 556 37,000  Level FlightAware
06:02AM 49.7500 6.1770 118° Southeast 483 556 37,000  Level FlightAware
06:03AM 49.7090 6.2930 119° Southeast 484 557 37,000  Level FlightAware
06:03AM 49.6720 6.3990 118° Southeast 483 556 37,000  Level FlightAware
06:04AM 49.6330 6.5110 118° Southeast 484 557 37,000  Level FlightAware
06:04AM 49.5990 6.6050 119° Southeast 485 558 37,000  Level FlightAware
06:05AM 49.5610 6.7180 117° Southeast 485 558 37,000  Level FlightAware
06:05AM 49.5250 6.8180 119° Southeast 485 558 37,000  Level FlightAware
06:06AM 49.4840 6.9330 119° Southeast 485 558 37,000  Level FlightAware
06:07AM 49.4470 7.0350 119° Southeast 481 554 37,000  Level FlightAware
06:07AM 49.4080 7.1470 118° Southeast 482 555 37,000  Level FlightAware
06:08AM 49.3760 7.2350 119° Southeast 483 556 37,000  Level FlightAware
06:09AM 49.3240 7.3800 119° Southeast 488 562 37,000  Level FlightAware
06:09AM 49.2890 7.4770 119° Southeast 489 563 37,000  Level FlightAware
06:10AM 49.2540 7.5700 120° Southeast 489 563 37,000  Level FlightAware
06:10AM 49.2140 7.6820 119° Southeast 489 563 37,000  Level FlightAware
06:11AM 49.1760 7.7850 119° Southeast 489 563 37,000  Level FlightAware
06:11AM 49.1300 7.9110 119° Southeast 489 563 37,000  Level FlightAware
06:12AM 49.0910 8.0130 120° Southeast 489 563 37,000  Level FlightAware
06:13AM 49.0600 8.0970 119° Southeast 489 563 37,000  Level FlightAware
06:13AM 49.0210 8.2020 119° Southeast 488 562 37,000  Level FlightAware
06:14AM 48.9770 8.3180 120° Southeast 489 563 37,000  Level FlightAware
06:14AM 48.9410 8.4170 119° Southeast 488 562 37,000  Level FlightAware
06:15AM 48.8980 8.5300 120° Southeast 489 563 37,000  Level FlightAware
06:16AM 48.8590 8.6310 120° Southeast 487 560 37,000  Level FlightAware
06:16AM 48.8180 8.7400 120° Southeast 488 562 37,000  Level FlightAware
06:17AM 48.7850 8.8260 120° Southeast 488 562 37,000 420 Level FlightAware
06:17AM 48.7460 8.9270 120° Southeast 490 564 37,500 840 Climbing FlightAware
06:18AM 48.7040 9.0400 119° Southeast 488 562 38,000 420 Climbing FlightAware
06:18AM 48.6670 9.1380 120° Southeast 488 562 38,000  Level FlightAware
06:19AM 48.6200 9.2580 121° Southeast 487 560 38,000  Level FlightAware
06:20AM 48.5860 9.3460 120° Southeast 485 558 38,000  Level FlightAware
06:20AM 48.5270 9.4810 123° Southeast 482 555 38,000  Level FlightAware
06:21AM 48.4640 9.5350 150° Southeast 473 544 38,000  Level FlightAware
06:21AM 48.3880 9.5720 162° South 474 545 38,000  Level FlightAware
06:22AM 48.3190 9.6160 157° South 479 551 38,000  Level FlightAware
06:23AM 48.2570 9.6670 151° Southeast 481 554 38,000  Level FlightAware
06:23AM 48.1610 9.7500 150° Southeast 483 556 38,000  Level FlightAware
06:24AM 48.0840 9.8190 149° Southeast 484 557 38,000  Level FlightAware
06:25AM 47.9980 9.8960 149° Southeast 485 558 38,000  Level FlightAware
06:25AM 47.9290 9.9580 149° Southeast 485 558 38,000  Level FlightAware
06:26AM 47.8620 10.0170 149° Southeast 486 559 38,000  Level FlightAware
06:27AM 47.7910 10.0780 150° Southeast 486 559 38,000  Level FlightAware
06:27AM 47.7020 10.1560 149° Southeast 486 559 38,000  Level FlightAware
06:28AM 47.6280 10.2230 149° Southeast 486 559 38,000 -180 Level FlightAware
06:29AM 47.5670 10.2750 150° Southeast 489 563 37,800 -780 Descending FlightAware
06:29AM 47.5050 10.3370 146° Southeast 488 562 37,200 -720 Descending FlightAware
06:30AM 47.4470 10.4130 138° Southeast 477 549 37,000 -180 Descending FlightAware
06:30AM 47.3960 10.4900 134° Southeast 480 552 37,000  Level FlightAware
06:31AM 47.3330 10.5830 135° Southeast 482 555 37,000  Level FlightAware
06:32AM 47.2720 10.6720 135° Southeast 485 558 37,000  Level FlightAware
06:32AM 47.2170 10.7540 135° Southeast 487 560 37,000  Level FlightAware
06:33AM 47.1590 10.8390 135° Southeast 489 563 37,000  Level FlightAware
06:33AM 47.1100 10.9110 135° Southeast 490 564 37,000  Level FlightAware
06:34AM 47.0500 10.9980 135° Southeast 491 565 37,000  Level FlightAware
06:34AM 47.0000 11.0670 137° Southeast 492 566 37,000  Level FlightAware
06:35AM 46.9320 11.1650 135° Southeast 492 566 37,000  Level FlightAware
06:36AM 46.8790 11.2390 136° Southeast 493 567 37,000  Level FlightAware
06:36AM 46.8200 11.3230 136° Southeast 493 567 37,000  Level FlightAware
06:37AM 46.7630 11.4030 136° Southeast 492 566 37,000  Level FlightAware
06:37AM 46.7110 11.4780 135° Southeast 493 567 37,000  Level FlightAware
06:38AM 46.6540 11.5580 136° Southeast 493 567 37,000  Level FlightAware
06:38AM 46.5960 11.6390 136° Southeast 494 568 37,000  Level FlightAware
06:39AM 46.5320 11.7290 136° Southeast 495 570 37,000  Level FlightAware
06:40AM 46.4790 11.8020 137° Southeast 495 570 37,000  Level FlightAware
06:40AM 46.4240 11.8780 136° Southeast 495 570 37,000  Level FlightAware
06:41AM 46.3620 11.9650 136° Southeast 496 571 37,000  Level FlightAware
06:41AM 46.2990 12.0520 136° Southeast 497 572 37,000  Level FlightAware
06:42AM 46.2370 12.1370 137° Southeast 497 572 37,000  Level FlightAware
06:43AM 46.1750 12.2210 137° Southeast 497 572 37,000  Level FlightAware
06:43AM 46.1110 12.3080 137° Southeast 498 573 37,000  Level FlightAware
06:44AM 46.0590 12.3810 136° Southeast 498 573 37,000  Level FlightAware
06:44AM 46.0020 12.4560 138° Southeast 499 574 37,000  Level FlightAware
06:45AM 45.9400 12.5400 137° Southeast 500 575 37,000  Level FlightAware
06:46AM 45.8790 12.6220 137° Southeast 500 575 37,000  Level FlightAware
06:46AM 45.8230 12.6970 137° Southeast 500 575 37,000  Level FlightAware
06:47AM 45.7410 12.8080 137° Southeast 494 568 37,000  Level FlightAware
06:48AM 45.6810 12.8870 137° Southeast 495 570 37,000  Level FlightAware
06:48AM 45.6230 12.9650 137° Southeast 494 568 37,000  Level FlightAware
06:49AM 45.5620 13.0470 137° Southeast 501 577 37,000  Level FlightAware
06:49AM 45.5040 13.1230 137° Southeast 501 577 37,000  Level FlightAware
06:50AM 45.4480 13.2030 135° Southeast 494 568 37,000  Level FlightAware
06:51AM 45.3970 13.2960 128° Southeast 500 575 37,000  Level FlightAware
06:51AM 45.3480 13.3900 127° Southeast 496 571 37,000  Level FlightAware
06:52AM 45.3040 13.4750 126° Southeast 497 572 37,000  Level FlightAware
06:52AM 45.2660 13.5470 127° Southeast 497 572 37,000  Level FlightAware
06:53AM 45.2080 13.6570 127° Southeast 497 572 37,000  Level FlightAware
06:53AM 45.1540 13.7570 127° Southeast 501 577 37,000  Level FlightAware
06:54AM 45.1050 13.8510 126° Southeast 501 577 37,000  Level FlightAware
06:55AM 45.0550 13.9420 128° Southeast 501 577 37,000  Level FlightAware
06:55AM 45.0070 14.0310 127° Southeast 501 577 37,000  Level FlightAware
06:56AM 44.9590 14.1200 127° Southeast 501 577 37,000  Level FlightAware
06:56AM 44.9060 14.2190 127° Southeast 502 578 37,000  Level FlightAware
06:57AM 44.8610 14.3020 127° Southeast 502 578 37,000  Level FlightAware
06:58AM 44.8010 14.4140 127° Southeast 502 578 37,000  Level FlightAware
06:58AM 44.7400 14.5250 128° Southeast 502 578 37,000  Level FlightAware
06:59AM 44.6940 14.6080 128° Southeast 501 577 37,000  Level FlightAware
07:00AM 44.6460 14.6950 128° Southeast 502 578 37,000  Level FlightAware
07:00AM 44.5950 14.7880 128° Southeast 502 578 37,000  Level FlightAware
07:01AM 44.5470 14.8770 127° Southeast 501 577 37,000  Level FlightAware
07:02AM 44.4600 15.0350 128° Southeast 502 578 37,000  Level FlightAware
07:02AM 44.4230 15.1010 128° Southeast 502 578 37,000  Level FlightAware
07:03AM 44.3630 15.2070 128° Southeast 503 579 37,000  Level FlightAware
07:03AM 44.3040 15.3140 128° Southeast 503 579 37,000  Level FlightAware
07:04AM 44.2530 15.4040 128° Southeast 502 578 37,000  Level FlightAware
07:05AM 44.2160 15.4700 128° Southeast 498 573 37,000  Level FlightAware
07:05AM 44.1390 15.6070 128° Southeast 497 572 37,000  Level FlightAware
07:06AM 44.1000 15.6760 128° Southeast 497 572 37,000  Level FlightAware
07:06AM 44.0500 15.7620 129° Southeast 497 572 37,000  Level FlightAware
07:07AM 43.9800 15.8850 128° Southeast 501 577 37,000  Level FlightAware
07:08AM 43.9370 15.9580 129° Southeast 501 577 37,000  Level FlightAware
07:08AM 43.8850 16.0510 128° Southeast 501 577 37,000  Level FlightAware
07:09AM 43.8360 16.1370 128° Southeast 501 577 37,000  Level FlightAware
07:09AM 43.7960 16.2070 128° Southeast 495 570 37,000  Level FlightAware
07:10AM 43.7400 16.3020 129° Southeast 495 570 37,000  Level FlightAware
07:11AM 43.6830 16.3990 129° Southeast 495 570 37,000  Level FlightAware
07:11AM 43.6410 16.4710 129° Southeast 496 571 37,000  Level FlightAware
07:12AM 43.5920 16.5560 128° Southeast 496 571 37,000 240 Level FlightAware
07:12AM 43.5330 16.6570 129° Southeast 497 572 37,300 840 Climbing FlightAware
07:13AM 43.4670 16.7670 130° Southeast 494 568 38,200 1,080 Climbing FlightAware
07:14AM 43.4200 16.8480 129° Southeast 496 571 38,800 600 Climbing FlightAware
07:14AM 43.3590 16.9500 129° Southeast 496 571 39,000 120 Climbing FlightAware
07:15AM 43.3130 17.0280 129° Southeast 490 564 39,000  Level FlightAware
07:15AM 43.2620 17.1130 129° Southeast 489 563 39,000  Level FlightAware
07:16AM 43.2110 17.1980 129° Southeast 488 562 39,000  Level FlightAware
07:17AM 43.1560 17.2900 129° Southeast 488 562 39,000  Level FlightAware
07:17AM 43.1020 17.3810 129° Southeast 493 567 39,000  Level FlightAware
07:18AM 43.0560 17.4580 129° Southeast 495 570 39,000  Level FlightAware
07:18AM 43.0050 17.5400 130° Southeast 495 570 39,000  Level FlightAware
07:19AM 42.9490 17.6340 129° Southeast 496 571 39,000  Level FlightAware
07:20AM 42.8960 17.7210 130° Southeast 497 572 39,000  Level FlightAware
07:20AM 42.8480 17.8010 129° Southeast 499 574 39,000  Level FlightAware
07:21AM 42.7950 17.8850 131° Southeast 502 578 39,000  Level FlightAware
07:21AM 42.7410 17.9730 130° Southeast 504 580 39,000  Level FlightAware
07:22AM 42.7190 18.0090 130° Southeast 503 579 39,000  Level FlightAware
07:23AM 42.6390 18.1400 130° Southeast 501 577 39,000  Level FlightAware
07:23AM 42.5830 18.2280 131° Southeast 498 573 39,000  Level FlightAware
07:24AM 42.5350 18.3030 131° Southeast 498 573 39,000  Level FlightAware
07:24AM 42.4770 18.3800 136° Southeast 497 572 39,000  Level FlightAware
07:25AM 42.4160 18.4630 135° Southeast 497 572 39,000  Level FlightAware
07:25AM 42.3660 18.5320 134° Southeast 497 572 39,000  Level FlightAware
07:26AM 42.3010 18.6170 136° Southeast 497 572 39,000  Level FlightAware
07:27AM 42.2490 18.6870 135° Southeast 497 572 39,000  Level FlightAware
07:27AM 42.1900 18.7680 134° Southeast 496 571 39,000  Level FlightAware
07:28AM 42.1400 18.8330 136° Southeast 496 571 39,000  Level FlightAware
07:28AM 42.0740 18.9190 136° Southeast 494 568 39,000  Level FlightAware
07:29AM 42.0210 18.9910 135° Southeast 494 568 39,000  Level FlightAware
07:30AM 41.9500 19.0850 135° Southeast 495 570 39,000  Level FlightAware
07:30AM 41.8990 19.1660 130° Southeast 496 571 39,000  Level FlightAware
07:31AM 41.8380 19.2670 129° Southeast 497 572 39,000  Level FlightAware
07:32AM 41.7870 19.3460 131° Southeast 498 573 39,000  Level FlightAware
07:32AM 41.7380 19.4190 132° Southeast 499 574 39,000  Level FlightAware
07:33AM 41.6710 19.5150 133° Southeast 500 575 39,000  Level FlightAware
07:33AM 41.6220 19.5870 132° Southeast 501 577 39,000  Level FlightAware
07:34AM 41.5630 19.6710 133° Southeast 501 577 39,000  Level FlightAware
07:34AM 41.5060 19.7520 133° Southeast 499 574 39,000  Level FlightAware
07:35AM 41.4500 19.8310 133° Southeast 499 574 39,000  Level FlightAware
07:36AM 41.4020 19.9000 133° Southeast 498 573 39,000  Level FlightAware
07:36AM 41.3400 19.9910 132° Southeast 498 573 39,000  Level FlightAware
07:37AM 41.2870 20.0650 134° Southeast 497 572 39,000  Level FlightAware
07:37AM 41.2270 20.1360 138° Southeast 496 571 39,000  Level FlightAware
07:38AM 41.1640 20.2050 140° Southeast 494 568 39,000  Level FlightAware
07:39AM 41.1070 20.2560 146° Southeast 493 567 39,000  Level FlightAware
07:39AM 41.0350 20.3100 150° Southeast 491 565 39,000  Level FlightAware
07:40AM 40.9590 20.3620 153° Southeast 492 566 39,000  Level FlightAware
07:40AM 40.8850 20.4110 153° Southeast 492 566 39,000  Level FlightAware
07:41AM 40.8120 20.4590 154° Southeast 493 567 39,000  Level FlightAware
07:41AM 40.7550 20.4970 153° Southeast 493 567 39,000  Level FlightAware
07:42AM 40.6890 20.5360 156° South 493 567 39,000  Level FlightAware
07:43AM 40.6120 20.5850 154° Southeast 492 566 39,000  Level FlightAware
07:43AM 40.5380 20.6320 154° Southeast 492 566 39,000  Level FlightAware
07:44AM 40.4730 20.6740 154° Southeast 491 565 39,000  Level FlightAware
07:44AM 40.4010 20.7330 148° Southeast 495 570 39,000  Level FlightAware
07:45AM 40.3470 20.8000 137° Southeast 495 570 39,000  Level FlightAware
07:45AM 40.2890 20.8780 134° Southeast 495 570 39,000  Level FlightAware
07:46AM 40.2400 20.9450 134° Southeast 494 568 39,000  Level FlightAware
07:47AM 40.1750 21.0320 134° Southeast 493 567 39,000  Level FlightAware
07:47AM 40.1250 21.0980 135° Southeast 494 568 39,000  Level FlightAware
07:48AM 40.0630 21.1780 135° Southeast 494 568 39,000  Level FlightAware
07:48AM 40.0070 21.2520 135° Southeast 492 566 39,000  Level FlightAware
07:49AM 39.9570 21.3170 135° Southeast 490 564 39,000  Level FlightAware
07:50AM 39.8970 21.3940 135° Southeast 492 566 39,000  Level FlightAware
07:50AM 39.8370 21.4730 135° Southeast 491 565 39,000  Level FlightAware
07:51AM 39.7850 21.5400 135° Southeast 490 564 39,000  Level FlightAware
07:51AM 39.7320 21.6090 135° Southeast 488 562 39,000  Level FlightAware
07:52AM 39.6710 21.6880 135° Southeast 487 560 39,000  Level FlightAware
07:52AM 39.6130 21.7630 135° Southeast 486 559 39,000  Level FlightAware
07:53AM 39.5550 21.8380 135° Southeast 487 560 39,000  Level FlightAware
07:54AM 39.5040 21.9030 135° Southeast 486 559 39,000  Level FlightAware
07:54AM 39.4470 21.9770 135° Southeast 486 559 39,000  Level FlightAware
07:55AM 39.3890 22.0490 136° Southeast 485 558 39,000  Level FlightAware
07:55AM 39.3320 22.1220 135° Southeast 485 558 39,000  Level FlightAware
07:56AM 39.2800 22.1890 135° Southeast 485 558 39,000  Level FlightAware
07:57AM 39.2220 22.2620 136° Southeast 485 558 39,000  Level FlightAware
07:57AM 39.1640 22.3350 136° Southeast 487 560 39,000  Level FlightAware
07:58AM 39.1090 22.4040 136° Southeast 487 560 39,000  Level FlightAware
07:58AM 39.0430 22.4870 136° Southeast 487 560 39,000  Level FlightAware
07:59AM 38.9850 22.5600 136° Southeast 487 560 39,000  Level FlightAware
08:00AM 38.9340 22.6230 136° Southeast 487 560 39,000  Level FlightAware
08:00AM 38.8650 22.7100 136° Southeast 487 560 39,000  Level FlightAware
08:01AM 38.8120 22.7760 136° Southeast 487 560 39,000  Level FlightAware
08:01AM 38.7470 22.8560 136° Southeast 486 559 39,000  Level FlightAware
08:02AM 38.6950 22.9230 135° Southeast 485 558 39,000  Level FlightAware
08:03AM 38.6370 22.9950 136° Southeast 485 558 39,000  Level FlightAware
08:03AM 38.5770 23.0660 137° Southeast 485 558 39,000  Level FlightAware
08:04AM 38.5260 23.1300 136° Southeast 485 558 39,000  Level FlightAware
08:04AM 38.4690 23.2000 136° Southeast 485 558 39,000  Level FlightAware
08:05AM 38.4120 23.2690 137° Southeast 484 557 39,000  Level FlightAware
08:06AM 38.3510 23.3440 136° Southeast 483 556 39,000  Level FlightAware
08:06AM 38.2970 23.4090 137° Southeast 480 552 39,000  Level FlightAware
08:07AM 38.2390 23.4810 136° Southeast 478 550 39,000  Level FlightAware
08:07AM 38.1820 23.5490 137° Southeast 477 549 39,000  Level FlightAware
08:08AM 38.1250 23.6180 136° Southeast 475 547 39,000  Level FlightAware
08:08AM 38.0750 23.6880 132° Southeast 487 560 39,000  Level FlightAware
08:09AM 38.0300 23.7750 123° Southeast 489 563 39,000  Level FlightAware
08:10AM 37.9880 23.8560 123° Southeast 487 560 39,000  Level FlightAware
08:10AM 37.9310 23.9650 124° Southeast 485 558 39,000  Level FlightAware
08:11AM 37.8980 24.0330 122° Southeast 485 558 39,000  Level FlightAware
08:12AM 37.8440 24.1360 124° Southeast 485 558 39,000  Level FlightAware
08:12AM 37.7970 24.2270 123° Southeast 489 563 39,000  Level FlightAware
08:13AM 37.7500 24.3190 123° Southeast 490 564 39,000  Level FlightAware
08:13AM 37.7070 24.4030 123° Southeast 490 564 39,000  Level FlightAware
08:14AM 37.6580 24.4990 123° Southeast 492 566 39,000  Level FlightAware
08:15AM 37.6190 24.5740 123° Southeast 493 567 39,000  Level FlightAware
08:15AM 37.5740 24.6610 123° Southeast 495 570 39,000  Level FlightAware
08:16AM 37.5340 24.7380 123° Southeast 496 571 39,000  Level FlightAware
08:16AM 37.4890 24.8250 123° Southeast 497 572 39,000  Level FlightAware
08:17AM 37.4390 24.9200 124° Southeast 498 573 39,000  Level FlightAware
08:17AM 37.3990 24.9970 123° Southeast 498 573 39,000  Level FlightAware
08:18AM 37.3540 25.0840 123° Southeast 498 573 39,000  Level FlightAware
08:19AM 37.3110 25.1640 124° Southeast 497 572 39,000  Level FlightAware
08:19AM 37.2650 25.2530 123° Southeast 496 571 39,000  Level FlightAware
08:20AM 37.2190 25.3400 124° Southeast 495 570 39,000  Level FlightAware
08:20AM 37.1740 25.4260 123° Southeast 495 570 39,000  Level FlightAware
08:21AM 37.1340 25.5000 124° Southeast 496 571 39,000  Level FlightAware
08:22AM 37.0850 25.5930 123° Southeast 496 571 39,000  Level FlightAware
08:22AM 37.0380 25.6790 124° Southeast 496 571 39,000  Level FlightAware
08:23AM 36.9990 25.7530 123° Southeast 496 571 39,000  Level FlightAware
08:23AM 36.9520 25.8420 123° Southeast 496 571 39,000  Level FlightAware
08:24AM 36.9130 25.9160 123° Southeast 497 572 39,000  Level FlightAware
08:25AM 36.8630 26.0080 124° Southeast 497 572 39,000  Level FlightAware
08:25AM 36.8170 26.0940 124° Southeast 498 573 39,000  Level FlightAware
08:26AM 36.7700 26.1800 124° Southeast 499 574 39,000  Level FlightAware
08:26AM 36.7290 26.2570 124° Southeast 500 575 39,000  Level FlightAware
08:27AM 36.6820 26.3420 125° Southeast 500 575 39,000  Level FlightAware
08:27AM 36.6410 26.4160 125° Southeast 499 574 39,000  Level FlightAware
08:28AM 36.5940 26.5040 124° Southeast 499 574 39,000  Level FlightAware
08:29AM 36.5520 26.5800 125° Southeast 500 575 39,000  Level FlightAware
08:29AM 36.5020 26.6710 124° Southeast 500 575 39,000  Level FlightAware
08:30AM 36.4550 26.7560 124° Southeast 502 578 39,000  Level FlightAware
08:30AM 36.4090 26.8420 124° Southeast 503 579 39,000  Level FlightAware
08:31AM 36.3630 26.9230 125° Southeast 504 580 39,000  Level FlightAware
08:31AM 36.3210 26.9990 124° Southeast 504 580 39,000  Level FlightAware
08:32AM 36.2790 27.0770 124° Southeast 504 580 39,000  Level FlightAware
08:33AM 36.2390 27.1500 124° Southeast 504 580 39,000  Level FlightAware
08:33AM 36.1990 27.2230 124° Southeast 504 580 39,000  Level FlightAware
08:34AM 36.1600 27.2970 123° Southeast 504 580 39,000  Level FlightAware
08:35AM 36.1180 27.3720 125° Southeast 504 580 39,000  Level FlightAware
08:35AM 36.0790 27.4450 123° Southeast 504 580 39,000  Level FlightAware
08:36AM 36.0390 27.5180 124° Southeast 504 580 39,000  Level FlightAware
08:36AM 35.9980 27.5940 124° Southeast 504 580 39,000  Level FlightAware
08:37AM 35.9580 27.6670 124° Southeast 504 580 39,000  Level FlightAware
08:38AM 35.9180 27.7400 124° Southeast 504 580 39,000  Level FlightAware
08:38AM 35.8770 27.8150 124° Southeast 504 580 39,000  Level FlightAware
08:39AM 35.8360 27.8900 124° Southeast 504 580 39,000  Level FlightAware
08:39AM 35.7960 27.9630 124° Southeast 504 580 39,000  Level FlightAware
08:40AM 35.6480 28.1930 128° Southeast 501 577 39,000  Level FlightAware
08:40AM 35.6050 28.2670 126° Southeast 501 577 39,000  Level FlightAware
08:41AM 35.5570 28.3510 125° Southeast 501 577 39,000  Level FlightAware
08:42AM 35.5140 28.4250 126° Southeast 502 578 39,000  Level FlightAware
08:42AM 35.4610 28.5160 126° Southeast 502 578 39,000  Level FlightAware
08:43AM 35.4170 28.5930 125° Southeast 502 578 39,000  Level FlightAware
08:43AM 35.3690 28.6740 126° Southeast 503 579 39,000  Level FlightAware
08:44AM 35.3200 28.7600 125° Southeast 503 579 39,000  Level FlightAware
08:45AM 35.2730 28.8410 125° Southeast 503 579 39,000  Level FlightAware
08:45AM 35.2190 28.9340 125° Southeast 503 579 39,000  Level FlightAware
08:46AM 35.1780 29.0050 125° Southeast 503 579 39,000  Level FlightAware
08:47AM 35.1360 29.0780 125° Southeast 503 579 39,000  Level FlightAware
08:47AM 35.0950 29.1500 125° Southeast 503 579 39,000  Level FlightAware
08:48AM 35.0540 29.2210 125° Southeast 503 579 39,000  Level FlightAware
08:48AM 35.0130 29.2920 125° Southeast 503 579 39,000  Level FlightAware
08:49AM 34.9720 29.3630 125° Southeast 503 579 39,000  Level FlightAware
08:49AM 34.8810 29.5040 128° Southeast 494 568 39,000  Level FlightAware
08:50AM 34.8340 29.5830 126° Southeast 494 568 39,000  Level FlightAware
08:51AM 34.7860 29.6620 126° Southeast 495 570 39,000  Level FlightAware
08:51AM 34.7330 29.7500 126° Southeast 495 570 39,000  Level FlightAware
08:52AM 34.6840 29.8330 126° Southeast 496 571 39,000  Level FlightAware
08:53AM 34.6410 29.9040 126° Southeast 496 571 39,000  Level FlightAware
08:53AM 34.6000 29.9730 126° Southeast 496 571 39,000  Level FlightAware
08:54AM 34.5580 30.0670 118° Southeast 39,000  Level FlightAware
08:54AM 34.5200 30.1480 120° Southeast 489 563 39,000  Level FlightAware
08:55AM 34.4490 30.3000 119° Southeast 497 572 39,000  Level FlightAware
08:56AM 34.4100 30.3800 121° Southeast 496 571 39,000  Level FlightAware
08:56AM 34.3700 30.4610 121° Southeast 494 568 39,000  Level FlightAware
08:57AM 34.3240 30.5550 121° Southeast 494 568 39,000  Level FlightAware
08:58AM 34.2720 30.6630 120° Southeast 493 567 39,000  Level FlightAware
08:58AM 34.2350 30.7370 121° Southeast 493 567 39,000  Level FlightAware
08:59AM 34.1960 30.8180 120° Southeast 493 567 39,000  Level FlightAware
08:59AM 34.1540 30.9050 120° Southeast 492 566 39,000  Level FlightAware
09:00AM 34.1130 30.9880 121° Southeast 493 567 39,000  Level FlightAware
09:00AM 34.0820 31.0500 121° Southeast 493 567 39,000  Level FlightAware
09:01AM 34.0380 31.1400 121° Southeast 492 566 39,000  Level FlightAware
09:02AM 33.9920 31.2330 121° Southeast 490 564 39,000  Level FlightAware
09:03AM 33.9290 31.3610 121° Southeast 490 564 39,000  Level FlightAware
09:03AM 33.8950 31.4290 121° Southeast 489 563 39,000  Level FlightAware
09:04AM 33.8470 31.5230 122° Southeast 489 563 39,000  Level FlightAware
09:04AM 33.8110 31.5990 120° Southeast 489 563 39,000 -660 Level FlightAware
09:05AM 33.7700 31.6790 122° Southeast 494 568 38,300 -1,500 Descending FlightAware
09:05AM 33.7290 31.7620 121° Southeast 500 575 37,300 -1,440 Descending FlightAware
09:06AM 33.6860 31.8480 121° Southeast 501 577 36,600 -1,200 Descending FlightAware
09:07AM 33.6390 31.9410 121° Southeast 504 580 35,800 -1,260 Descending FlightAware
09:07AM 33.5960 32.0270 121° Southeast 507 583 35,100 -780 Descending FlightAware
09:08AM 33.5590 32.0990 122° Southeast 504 580 35,000 -120 Descending FlightAware
09:08AM 33.5200 32.1750 122° Southeast 503 579 35,000 -420 Level FlightAware
09:09AM 33.4690 32.2750 121° Southeast 500 575 34,500 -900 Descending FlightAware
09:10AM 33.4220 32.3670 121° Southeast 492 566 33,800 -1,020 Descending FlightAware
09:10AM 33.3840 32.4430 121° Southeast 483 556 33,200 -960 Descending FlightAware
09:11AM 33.3270 32.5530 122° Southeast 484 557 32,500 -720 Descending FlightAware
09:12AM 33.3070 32.5940 120° Southeast 481 554 32,300 -840 Descending FlightAware
09:12AM 33.2430 32.7170 122° Southeast 467 537 31,500 -1,080 Descending FlightAware
09:13AM 33.1980 32.8030 122° Southeast 465 535 30,900 -600 Descending FlightAware
09:14AM 33.1580 32.8830 121° Southeast 465 535 30,800 -720 Descending FlightAware
09:14AM 33.1170 32.9610 122° Southeast 457 526 30,000 -780 Descending FlightAware
09:15AM 33.0730 33.0470 121° Southeast 456 525 29,900 -960 Descending FlightAware
09:15AM 33.0440 33.1020 122° Southeast 453 521 29,000 -2,160 Descending FlightAware
09:16AM 32.9720 33.2400 122° Southeast 438 504 26,600 -2,580 Descending FlightAware
09:17AM 32.9390 33.3030 122° Southeast 442 509 25,000 -2,940 Descending FlightAware
09:17AM 32.9000 33.3680 126° Southeast 436 502 23,500 -1,740 Descending FlightAware
09:18AM 32.8440 33.4590 126° Southeast 435 501 22,600 -1,920 Descending FlightAware
09:19AM 32.7960 33.5350 127° Southeast 422 486 20,800 -2,400 Descending FlightAware
09:19AM 32.7560 33.6030 125° Southeast 422 486 19,800 -1,620 Descending FlightAware
09:20AM 32.7220 33.6590 126° Southeast 413 475 19,000 -1,680 Descending FlightAware
09:21AM 32.6780 33.7330 125° Southeast 410 472 17,900 -1,740 Descending FlightAware
09:21AM 32.6380 33.7980 126° Southeast 406 467 16,900 -1,680 Descending FlightAware
09:22AM 32.5980 33.8620 127° Southeast 396 456 15,900 -1,560 Descending FlightAware
09:22AM 32.5630 33.9220 125° Southeast 389 448 15,100 -1,500 Descending FlightAware
09:23AM 32.5260 33.9810 127° Southeast 390 449 14,200 -1,620 Descending FlightAware
09:24AM 32.4800 34.0570 126° Southeast 382 440 13,000 -1,620 Descending FlightAware
09:24AM 32.4470 34.1100 126° Southeast 369 425 12,200 -1,440 Descending FlightAware
09:25AM 32.4160 34.1610 126° Southeast 356 410 11,500 -900 Descending FlightAware
09:25AM 32.3760 34.2250 126° Southeast 350 403 11,100 -1,020 Descending FlightAware
09:26AM 32.3420 34.2810 126° Southeast 313 360 10,200 -780 Descending FlightAware
09:27AM 32.3150 34.3250 126° Southeast 313 360 10,200  Level FlightAware
09:27AM 32.2900 34.3680 125° Southeast 313 360 10,200  Level FlightAware
09:28AM 32.2650 34.4110 125° Southeast 313 360 10,200  Level FlightAware
09:30AM 32.1142 34.6486 125° Southeast  Level FlightAware Approximate
09:31AM 32.0405 34.7992 125° Southeast  Level FlightAware Approximate
09:32AM 32.0000 34.8667 125° Southeast  Level FlightAware Approximate
09:33AM 32.0095 34.8769 125° Southeast  Level Estimated
09:34AM 32.0095 34.8769 125° Southeast  Level Estimated
09:35AM 32.0095 34.8769 125° Southeast  Level Estimated
09:36AM 32.0095 34.8769 125° Southeast  Level Estimated
09:37AM 32.0095 34.8769 125° Southeast  Level Estimated
09:38AM 32.0095 34.8769 125° Southeast  Level Estimated
09:39AM 32.0095 34.8769 125° Southeast  Level Estimated
09:40AM 32.0095 34.8769 125° Southeast  Level Estimated